Seattle, Washington
Current Conditions -  °F | °C
As of 1:53 AM on Monday 22 Dec 2014 (Local Time) from KBFI Reporting Station
Clear Clear  
Wind Chill: 50°   Ceiling: Unl
Heat Index: 50°   Visibility: 10mi
Dew Point: 44°   Wind: 0mph
Humidity: 80%   Direction: NA
Pressure: 30.15"   Gusts: NA
Location:  47.6°N, 122.32°W
Report Text: KBFI 220953Z 00000KT 10SM CLR 10/07 A3015 RMK AO2 SLP208 T01000067
Loading
Personal Weather Stations






























Interactive Weather Map New forecast layout! Learn more

10-Day Weather Forecast

Advertisements
Track Severe Weather on mobile